sensor_id;sensor_type;location;lat;lon;timestamp;P1;durP1;ratioP1;P2;durP2;ratioP2
24153;SDS011;12312;53.362;-1.518;2022-12-18T00:00:42;36.83;;;16.48;;
24153;SDS011;12312;53.362;-1.518;2022-12-18T00:03:08;20.83;;;11.80;;
24153;SDS011;12312;53.362;-1.518;2022-12-18T00:05:35;23.33;;;12.18;;
24153;SDS011;12312;53.362;-1.518;2022-12-18T00:08:02;16.88;;;9.85;;
24153;SDS011;12312;53.362;-1.518;2022-12-18T00:10:28;20.17;;;9.85;;
24153;SDS011;12312;53.362;-1.518;2022-12-18T00:12:55;8.85;;;5.05;;
24153;SDS011;12312;53.362;-1.518;2022-12-18T00:15:21;12.65;;;7.00;;
24153;SDS011;12312;53.362;-1.518;2022-12-18T00:17:47;13.25;;;7.25;;
24153;SDS011;12312;53.362;-1.518;2022-12-18T00:20:13;12.68;;;7.38;;
24153;SDS011;12312;53.362;-1.518;2022-12-18T00:22:39;14.43;;;7.80;;
24153;SDS011;12312;53.362;-1.518;2022-12-18T00:25:04;11.25;;;6.40;;
24153;SDS011;12312;53.362;-1.518;2022-12-18T00:27:30;11.40;;;6.50;;
24153;SDS011;12312;53.362;-1.518;2022-12-18T00:29:55;18.52;;;8.73;;
24153;SDS011;12312;53.362;-1.518;2022-12-18T00:32:21;16.77;;;8.00;;
24153;SDS011;12312;53.362;-1.518;2022-12-18T00:34:46;12.70;;;7.32;;
24153;SDS011;12312;53.362;-1.518;2022-12-18T00:37:12;15.20;;;7.65;;
24153;SDS011;12312;53.362;-1.518;2022-12-18T00:39:38;18.77;;;8.68;;
24153;SDS011;12312;53.362;-1.518;2022-12-18T00:42:04;14.52;;;7.25;;
24153;SDS011;12312;53.362;-1.518;2022-12-18T00:44:48;11.93;;;7.72;;
24153;SDS011;12312;53.362;-1.518;2022-12-18T00:47:13;16.70;;;7.68;;
24153;SDS011;12312;53.362;-1.518;2022-12-18T00:49:39;13.35;;;7.72;;
24153;SDS011;12312;53.362;-1.518;2022-12-18T00:52:05;15.48;;;7.88;;
24153;SDS011;12312;53.362;-1.518;2022-12-18T00:54:30;17.42;;;8.60;;
24153;SDS011;12312;53.362;-1.518;2022-12-18T00:56:56;15.40;;;8.05;;
24153;SDS011;12312;53.362;-1.518;2022-12-18T00:59:22;16.38;;;9.25;;
24153;SDS011;12312;53.362;-1.518;2022-12-18T01:01:50;16.25;;;8.00;;
24153;SDS011;12312;53.362;-1.518;2022-12-18T01:04:15;17.50;;;8.13;;
24153;SDS011;12312;53.362;-1.518;2022-12-18T01:06:41;16.20;;;8.75;;
24153;SDS011;12312;53.362;-1.518;2022-12-18T01:09:06;16.95;;;9.38;;
24153;SDS011;12312;53.362;-1.518;2022-12-18T01:11:32;17.05;;;10.35;;
24153;SDS011;12312;53.362;-1.518;2022-12-18T01:14:02;238.23;;;23.08;;
24153;SDS011;12312;53.362;-1.518;2022-12-18T01:16:27;23.85;;;11.57;;
24153;SDS011;12312;53.362;-1.518;2022-12-18T01:18:54;21.75;;;10.32;;
24153;SDS011;12312;53.362;-1.518;2022-12-18T01:21:20;14.48;;;9.10;;
24153;SDS011;12312;53.362;-1.518;2022-12-18T01:23:50;17.42;;;9.32;;
24153;SDS011;12312;53.362;-1.518;2022-12-18T01:26:17;13.48;;;8.38;;
24153;SDS011;12312;53.362;-1.518;2022-12-18T01:28:43;16.77;;;9.45;;
24153;SDS011;12312;53.362;-1.518;2022-12-18T01:31:20;19.00;;;9.43;;
24153;SDS011;12312;53.362;-1.518;2022-12-18T01:33:50;17.73;;;9.45;;
24153;SDS011;12312;53.362;-1.518;2022-12-18T01:38:42;17.42;;;9.70;;
24153;SDS011;12312;53.362;-1.518;2022-12-18T01:41:07;16.38;;;10.43;;
24153;SDS011;12312;53.362;-1.518;2022-12-18T01:46:26;556.92;;;41.75;;
24153;SDS011;12312;53.362;-1.518;2022-12-18T01:48:53;22.15;;;11.45;;
24153;SDS011;12312;53.362;-1.518;2022-12-18T01:51:24;37.50;;;11.70;;
24153;SDS011;12312;53.362;-1.518;2022-12-18T01:53:52;19.95;;;10.05;;
24153;SDS011;12312;53.362;-1.518;2022-12-18T01:56:19;18.05;;;10.52;;
24153;SDS011;12312;53.362;-1.518;2022-12-18T01:58:48;22.42;;;12.00;;
24153;SDS011;12312;53.362;-1.518;2022-12-18T02:01:14;20.98;;;11.43;;
24153;SDS011;12312;53.362;-1.518;2022-12-18T02:03:41;19.52;;;9.88;;
24153;SDS011;12312;53.362;-1.518;2022-12-18T02:09:11;17.75;;;10.23;;
24153;SDS011;12312;53.362;-1.518;2022-12-18T02:11:48;16.23;;;10.13;;
24153;SDS011;12312;53.362;-1.518;2022-12-18T02:24:44;17.27;;;10.15;;
24153;SDS011;12312;53.362;-1.518;2022-12-18T02:27:20;18.42;;;10.40;;
24153;SDS011;12312;53.362;-1.518;2022-12-18T02:29:48;21.35;;;11.02;;
24153;SDS011;12312;53.362;-1.518;2022-12-18T02:32:20;17.55;;;10.05;;
24153;SDS011;12312;53.362;-1.518;2022-12-18T02:34:50;23.67;;;10.93;;
24153;SDS011;12312;53.362;-1.518;2022-12-18T02:37:19;23.65;;;10.68;;
24153;SDS011;12312;53.362;-1.518;2022-12-18T02:39:46;20.63;;;10.93;;
24153;SDS011;12312;53.362;-1.518;2022-12-18T02:42:13;22.98;;;11.55;;
24153;SDS011;12312;53.362;-1.518;2022-12-18T02:44:48;21.80;;;10.40;;
24153;SDS011;12312;53.362;-1.518;2022-12-18T02:47:16;16.38;;;10.20;;
24153;SDS011;12312;53.362;-1.518;2022-12-18T02:50:01;22.20;;;12.48;;
24153;SDS011;12312;53.362;-1.518;2022-12-18T02:53:01;19.92;;;11.13;;
24153;SDS011;12312;53.362;-1.518;2022-12-18T03:01:21;21.17;;;11.07;;
24153;SDS011;12312;53.362;-1.518;2022-12-18T03:06:53;18.27;;;11.00;;
24153;SDS011;12312;53.362;-1.518;2022-12-18T03:09:25;25.08;;;12.75;;
24153;SDS011;12312;53.362;-1.518;2022-12-18T03:11:58;22.38;;;11.35;;
24153;SDS011;12312;53.362;-1.518;2022-12-18T03:14:48;20.63;;;12.23;;
24153;SDS011;12312;53.362;-1.518;2022-12-18T03:17:35;24.08;;;12.25;;
24153;SDS011;12312;53.362;-1.518;2022-12-18T03:20:07;23.40;;;13.13;;
24153;SDS011;12312;53.362;-1.518;2022-12-18T03:22:37;25.98;;;13.25;;
24153;SDS011;12312;53.362;-1.518;2022-12-18T03:25:06;28.88;;;14.27;;
24153;SDS011;12312;53.362;-1.518;2022-12-18T03:27:37;30.92;;;14.18;;
24153;SDS011;12312;53.362;-1.518;2022-12-18T03:30:08;30.45;;;13.60;;
24153;SDS011;12312;53.362;-1.518;2022-12-18T03:32:58;30.90;;;14.35;;
24153;SDS011;12312;53.362;-1.518;2022-12-18T03:35:33;29.70;;;14.60;;
24153;SDS011;12312;53.362;-1.518;2022-12-18T03:38:03;28.13;;;13.75;;
24153;SDS011;12312;53.362;-1.518;2022-12-18T03:40:31;28.65;;;14.60;;
24153;SDS011;12312;53.362;-1.518;2022-12-18T03:43:07;24.27;;;13.68;;
24153;SDS011;12312;53.362;-1.518;2022-12-18T03:45:37;28.15;;;14.30;;
24153;SDS011;12312;53.362;-1.518;2022-12-18T03:50:49;31.55;;;14.98;;
24153;SDS011;12312;53.362;-1.518;2022-12-18T03:55:47;28.40;;;14.40;;
24153;SDS011;12312;53.362;-1.518;2022-12-18T03:58:15;29.55;;;14.95;;
24153;SDS011;12312;53.362;-1.518;2022-12-18T04:00:44;30.50;;;15.57;;
24153;SDS011;12312;53.362;-1.518;2022-12-18T04:03:13;28.15;;;15.32;;
24153;SDS011;12312;53.362;-1.518;2022-12-18T04:05:40;26.77;;;14.75;;
24153;SDS011;12312;53.362;-1.518;2022-12-18T04:08:09;31.00;;;15.25;;
24153;SDS011;12312;53.362;-1.518;2022-12-18T04:10:34;32.72;;;16.33;;
24153;SDS011;12312;53.362;-1.518;2022-12-18T04:13:05;37.80;;;16.52;;
24153;SDS011;12312;53.362;-1.518;2022-12-18T04:15:31;31.02;;;16.42;;
24153;SDS011;12312;53.362;-1.518;2022-12-18T04:18:01;38.13;;;16.73;;
24153;SDS011;12312;53.362;-1.518;2022-12-18T04:20:27;32.20;;;17.25;;
24153;SDS011;12312;53.362;-1.518;2022-12-18T04:22:53;33.67;;;17.40;;
24153;SDS011;12312;53.362;-1.518;2022-12-18T04:25:46;35.40;;;17.70;;
24153;SDS011;12312;53.362;-1.518;2022-12-18T04:28:13;36.83;;;16.48;;
24153;SDS011;12312;53.362;-1.518;2022-12-18T04:30:39;34.00;;;17.27;;
24153;SDS011;12312;53.362;-1.518;2022-12-18T04:33:13;30.95;;;17.17;;
24153;SDS011;12312;53.362;-1.518;2022-12-18T04:35:50;32.75;;;16.73;;
24153;SDS011;12312;53.362;-1.518;2022-12-18T04:38:16;34.50;;;16.23;;
24153;SDS011;12312;53.362;-1.518;2022-12-18T04:40:42;34.83;;;17.30;;
24153;SDS011;12312;53.362;-1.518;2022-12-18T04:43:09;36.00;;;17.38;;
24153;SDS011;12312;53.362;-1.518;2022-12-18T04:45:35;35.97;;;16.70;;
24153;SDS011;12312;53.362;-1.518;2022-12-18T04:48:01;35.58;;;16.95;;
24153;SDS011;12312;53.362;-1.518;2022-12-18T04:50:28;34.47;;;17.45;;
24153;SDS011;12312;53.362;-1.518;2022-12-18T04:52:55;38.63;;;16.40;;
24153;SDS011;12312;53.362;-1.518;2022-12-18T04:55:24;32.92;;;16.90;;
24153;SDS011;12312;53.362;-1.518;2022-12-18T04:57:49;32.97;;;16.60;;
24153;SDS011;12312;53.362;-1.518;2022-12-18T05:00:15;37.92;;;17.75;;
24153;SDS011;12312;53.362;-1.518;2022-12-18T05:02:42;37.55;;;17.50;;
24153;SDS011;12312;53.362;-1.518;2022-12-18T05:05:09;42.65;;;17.58;;
24153;SDS011;12312;53.362;-1.518;2022-12-18T05:07:35;47.30;;;19.38;;
24153;SDS011;12312;53.362;-1.518;2022-12-18T05:10:01;44.55;;;19.25;;
24153;SDS011;12312;53.362;-1.518;2022-12-18T05:12:30;49.00;;;21.33;;
24153;SDS011;12312;53.362;-1.518;2022-12-18T05:14:56;47.97;;;20.55;;
24153;SDS011;12312;53.362;-1.518;2022-12-18T05:17:23;49.67;;;21.08;;
24153;SDS011;12312;53.362;-1.518;2022-12-18T05:19:49;54.38;;;20.30;;
24153;SDS011;12312;53.362;-1.518;2022-12-18T05:22:15;63.30;;;22.05;;
24153;SDS011;12312;53.362;-1.518;2022-12-18T05:24:41;58.22;;;22.27;;
24153;SDS011;12312;53.362;-1.518;2022-12-18T05:27:07;57.45;;;23.02;;
24153;SDS011;12312;53.362;-1.518;2022-12-18T05:29:32;53.20;;;23.80;;
24153;SDS011;12312;53.362;-1.518;2022-12-18T05:31:58;50.60;;;22.30;;
24153;SDS011;12312;53.362;-1.518;2022-12-18T05:34:23;61.03;;;23.40;;
24153;SDS011;12312;53.362;-1.518;2022-12-18T05:36:49;59.58;;;24.58;;
24153;SDS011;12312;53.362;-1.518;2022-12-18T05:39:14;64.03;;;25.45;;
24153;SDS011;12312;53.362;-1.518;2022-12-18T05:41:40;61.67;;;24.52;;
24153;SDS011;12312;53.362;-1.518;2022-12-18T05:44:06;57.25;;;23.73;;
24153;SDS011;12312;53.362;-1.518;2022-12-18T05:46:31;66.05;;;25.90;;
24153;SDS011;12312;53.362;-1.518;2022-12-18T05:49:00;64.13;;;25.77;;
24153;SDS011;12312;53.362;-1.518;2022-12-18T05:51:26;68.85;;;26.08;;
24153;SDS011;12312;53.362;-1.518;2022-12-18T05:53:51;72.63;;;27.05;;
24153;SDS011;12312;53.362;-1.518;2022-12-18T05:56:18;74.63;;;28.38;;
24153;SDS011;12312;53.362;-1.518;2022-12-18T05:58:45;69.50;;;26.33;;
24153;SDS011;12312;53.362;-1.518;2022-12-18T06:01:16;79.40;;;27.30;;
24153;SDS011;12312;53.362;-1.518;2022-12-18T06:03:44;80.82;;;29.48;;
24153;SDS011;12312;53.362;-1.518;2022-12-18T06:06:16;80.05;;;27.90;;
24153;SDS011;12312;53.362;-1.518;2022-12-18T06:08:44;81.15;;;28.05;;
24153;SDS011;12312;53.362;-1.518;2022-12-18T06:11:10;83.32;;;29.85;;
24153;SDS011;12312;53.362;-1.518;2022-12-18T06:13:36;79.53;;;28.27;;
24153;SDS011;12312;53.362;-1.518;2022-12-18T06:16:05;90.10;;;31.10;;
24153;SDS011;12312;53.362;-1.518;2022-12-18T06:18:31;92.75;;;31.10;;
24153;SDS011;12312;53.362;-1.518;2022-12-18T06:20:58;101.30;;;33.95;;
24153;SDS011;12312;53.362;-1.518;2022-12-18T06:23:24;92.88;;;33.05;;
24153;SDS011;12312;53.362;-1.518;2022-12-18T06:25:50;106.05;;;34.40;;
24153;SDS011;12312;53.362;-1.518;2022-12-18T06:28:15;97.63;;;31.23;;
24153;SDS011;12312;53.362;-1.518;2022-12-18T06:30:46;108.00;;;34.28;;
24153;SDS011;12312;53.362;-1.518;2022-12-18T06:33:13;115.43;;;37.08;;
24153;SDS011;12312;53.362;-1.518;2022-12-18T06:35:40;110.65;;;36.08;;
24153;SDS011;12312;53.362;-1.518;2022-12-18T06:38:06;108.15;;;37.60;;
24153;SDS011;12312;53.362;-1.518;2022-12-18T06:40:33;104.45;;;35.80;;
24153;SDS011;12312;53.362;-1.518;2022-12-18T06:43:00;107.82;;;35.85;;
24153;SDS011;12312;53.362;-1.518;2022-12-18T06:45:25;99.55;;;35.97;;
24153;SDS011;12312;53.362;-1.518;2022-12-18T06:47:51;103.43;;;36.38;;
24153;SDS011;12312;53.362;-1.518;2022-12-18T06:50:17;108.63;;;35.90;;
24153;SDS011;12312;53.362;-1.518;2022-12-18T06:52:42;113.45;;;37.90;;
24153;SDS011;12312;53.362;-1.518;2022-12-18T06:55:09;108.80;;;38.17;;
24153;SDS011;12312;53.362;-1.518;2022-12-18T06:57:36;109.93;;;38.42;;
24153;SDS011;12312;53.362;-1.518;2022-12-18T07:00:03;111.40;;;37.25;;
24153;SDS011;12312;53.362;-1.518;2022-12-18T07:02:31;99.68;;;35.15;;
24153;SDS011;12312;53.362;-1.518;2022-12-18T07:04:57;106.85;;;38.97;;
24153;SDS011;12312;53.362;-1.518;2022-12-18T07:07:23;111.93;;;39.58;;
24153;SDS011;12312;53.362;-1.518;2022-12-18T07:09:49;114.47;;;38.08;;
24153;SDS011;12312;53.362;-1.518;2022-12-18T07:12:15;121.68;;;40.22;;
24153;SDS011;12312;53.362;-1.518;2022-12-18T07:14:41;115.43;;;38.78;;
24153;SDS011;12312;53.362;-1.518;2022-12-18T07:17:06;134.90;;;41.53;;
24153;SDS011;12312;53.362;-1.518;2022-12-18T07:19:32;120.80;;;38.58;;
24153;SDS011;12312;53.362;-1.518;2022-12-18T07:21:58;122.45;;;40.45;;
24153;SDS011;12312;53.362;-1.518;2022-12-18T07:24:23;124.43;;;41.10;;
24153;SDS011;12312;53.362;-1.518;2022-12-18T07:26:49;119.88;;;40.53;;
24153;SDS011;12312;53.362;-1.518;2022-12-18T07:29:15;126.55;;;40.45;;
24153;SDS011;12312;53.362;-1.518;2022-12-18T07:31:40;139.95;;;42.60;;
24153;SDS011;12312;53.362;-1.518;2022-12-18T07:34:09;129.88;;;42.47;;
24153;SDS011;12312;53.362;-1.518;2022-12-18T07:36:37;122.75;;;39.08;;
24153;SDS011;12312;53.362;-1.518;2022-12-18T07:39:03;125.00;;;40.03;;
24153;SDS011;12312;53.362;-1.518;2022-12-18T07:41:29;130.65;;;39.47;;
24153;SDS011;12312;53.362;-1.518;2022-12-18T07:43:54;141.75;;;43.00;;
24153;SDS011;12312;53.362;-1.518;2022-12-18T07:46:20;133.93;;;41.65;;
24153;SDS011;12312;53.362;-1.518;2022-12-18T07:48:45;126.85;;;40.22;;
24153;SDS011;12312;53.362;-1.518;2022-12-18T07:51:12;126.93;;;41.75;;
24153;SDS011;12312;53.362;-1.518;2022-12-18T07:53:37;130.50;;;40.90;;
24153;SDS011;12312;53.362;-1.518;2022-12-18T07:56:08;130.57;;;41.97;;
24153;SDS011;12312;53.362;-1.518;2022-12-18T07:58:35;134.43;;;36.22;;
24153;SDS011;12312;53.362;-1.518;2022-12-18T08:01:05;134.30;;;41.28;;
24153;SDS011;12312;53.362;-1.518;2022-12-18T08:03:32;136.95;;;41.80;;
24153;SDS011;12312;53.362;-1.518;2022-12-18T08:06:00;124.47;;;39.72;;
24153;SDS011;12312;53.362;-1.518;2022-12-18T08:08:26;137.73;;;39.50;;
24153;SDS011;12312;53.362;-1.518;2022-12-18T08:10:52;140.05;;;41.70;;
24153;SDS011;12312;53.362;-1.518;2022-12-18T08:13:18;131.00;;;41.30;;
24153;SDS011;12312;53.362;-1.518;2022-12-18T08:15:44;134.75;;;40.10;;
24153;SDS011;12312;53.362;-1.518;2022-12-18T08:18:09;137.93;;;39.28;;
24153;SDS011;12312;53.362;-1.518;2022-12-18T08:20:34;140.52;;;41.40;;
24153;SDS011;12312;53.362;-1.518;2022-12-18T08:23:00;114.60;;;36.30;;
24153;SDS011;12312;53.362;-1.518;2022-12-18T08:25:25;132.35;;;41.67;;
24153;SDS011;12312;53.362;-1.518;2022-12-18T08:27:51;119.10;;;37.65;;
24153;SDS011;12312;53.362;-1.518;2022-12-18T08:30:17;122.88;;;37.67;;
24153;SDS011;12312;53.362;-1.518;2022-12-18T08:32:43;133.18;;;38.63;;
24153;SDS011;12312;53.362;-1.518;2022-12-18T08:35:08;127.85;;;37.97;;
24153;SDS011;12312;53.362;-1.518;2022-12-18T08:37:35;117.18;;;36.25;;
24153;SDS011;12312;53.362;-1.518;2022-12-18T08:40:00;126.43;;;38.95;;
24153;SDS011;12312;53.362;-1.518;2022-12-18T08:42:26;124.68;;;36.08;;
24153;SDS011;12312;53.362;-1.518;2022-12-18T08:45:10;127.15;;;36.60;;
24153;SDS011;12312;53.362;-1.518;2022-12-18T08:47:35;117.60;;;34.30;;
24153;SDS011;12312;53.362;-1.518;2022-12-18T08:50:01;116.45;;;36.28;;
24153;SDS011;12312;53.362;-1.518;2022-12-18T08:52:27;124.15;;;36.35;;
24153;SDS011;12312;53.362;-1.518;2022-12-18T08:54:53;120.63;;;34.33;;
24153;SDS011;12312;53.362;-1.518;2022-12-18T08:57:18;120.95;;;35.78;;
24153;SDS011;12312;53.362;-1.518;2022-12-18T08:59:44;105.53;;;32.88;;
24153;SDS011;12312;53.362;-1.518;2022-12-18T09:02:10;110.93;;;33.63;;
24153;SDS011;12312;53.362;-1.518;2022-12-18T09:04:36;118.40;;;37.22;;
24153;SDS011;12312;53.362;-1.518;2022-12-18T09:07:01;107.72;;;34.45;;
24153;SDS011;12312;53.362;-1.518;2022-12-18T09:09:27;104.35;;;34.92;;
24153;SDS011;12312;53.362;-1.518;2022-12-18T09:11:52;108.95;;;33.78;;
24153;SDS011;12312;53.362;-1.518;2022-12-18T09:14:18;112.95;;;34.83;;
24153;SDS011;12312;53.362;-1.518;2022-12-18T09:16:43;110.57;;;35.13;;
24153;SDS011;12312;53.362;-1.518;2022-12-18T09:19:08;108.93;;;34.75;;
24153;SDS011;12312;53.362;-1.518;2022-12-18T09:21:35;104.47;;;34.55;;
24153;SDS011;12312;53.362;-1.518;2022-12-18T09:24:00;113.80;;;35.60;;
24153;SDS011;12312;53.362;-1.518;2022-12-18T09:26:26;112.57;;;34.70;;
24153;SDS011;12312;53.362;-1.518;2022-12-18T09:28:52;106.85;;;33.80;;
24153;SDS011;12312;53.362;-1.518;2022-12-18T09:31:19;113.38;;;33.78;;
24153;SDS011;12312;53.362;-1.518;2022-12-18T09:33:46;109.22;;;36.13;;
24153;SDS011;12312;53.362;-1.518;2022-12-18T09:36:13;112.70;;;35.83;;
24153;SDS011;12312;53.362;-1.518;2022-12-18T09:38:40;105.65;;;33.88;;
24153;SDS011;12312;53.362;-1.518;2022-12-18T09:44:05;102.53;;;32.63;;
24153;SDS011;12312;53.362;-1.518;2022-12-18T09:46:44;105.65;;;31.75;;
24153;SDS011;12312;53.362;-1.518;2022-12-18T09:49:17;97.45;;;31.88;;
24153;SDS011;12312;53.362;-1.518;2022-12-18T09:55:05;100.45;;;31.70;;
24153;SDS011;12312;53.362;-1.518;2022-12-18T09:57:34;75.65;;;24.48;;
24153;SDS011;12312;53.362;-1.518;2022-12-18T10:00:15;94.63;;;30.13;;
24153;SDS011;12312;53.362;-1.518;2022-12-18T10:02:44;97.75;;;30.90;;
24153;SDS011;12312;53.362;-1.518;2022-12-18T10:05:12;92.07;;;30.75;;
24153;SDS011;12312;53.362;-1.518;2022-12-18T10:08:24;94.43;;;31.08;;
24153;SDS011;12312;53.362;-1.518;2022-12-18T10:10:51;88.85;;;28.90;;
24153;SDS011;12312;53.362;-1.518;2022-12-18T10:13:27;90.85;;;27.73;;
24153;SDS011;12312;53.362;-1.518;2022-12-18T10:21:29;89.35;;;28.42;;
24153;SDS011;12312;53.362;-1.518;2022-12-18T10:26:42;98.70;;;31.23;;
24153;SDS011;12312;53.362;-1.518;2022-12-18T10:29:13;90.80;;;27.92;;
24153;SDS011;12312;53.362;-1.518;2022-12-18T10:31:39;90.95;;;28.45;;
24153;SDS011;12312;53.362;-1.518;2022-12-18T10:34:12;82.85;;;27.25;;
24153;SDS011;12312;53.362;-1.518;2022-12-18T10:36:40;64.10;;;22.40;;
24153;SDS011;12312;53.362;-1.518;2022-12-18T10:39:16;77.30;;;25.58;;
24153;SDS011;12312;53.362;-1.518;2022-12-18T10:42:09;83.38;;;27.85;;
24153;SDS011;12312;53.362;-1.518;2022-12-18T10:44:41;80.05;;;27.40;;
24153;SDS011;12312;53.362;-1.518;2022-12-18T10:47:10;77.97;;;25.77;;
24153;SDS011;12312;53.362;-1.518;2022-12-18T10:49:47;82.93;;;28.27;;
24153;SDS011;12312;53.362;-1.518;2022-12-18T10:52:19;83.68;;;28.20;;
24153;SDS011;12312;53.362;-1.518;2022-12-18T10:54:54;81.55;;;26.30;;
24153;SDS011;12312;53.362;-1.518;2022-12-18T10:57:31;84.10;;;27.02;;
24153;SDS011;12312;53.362;-1.518;2022-12-18T11:02:46;80.00;;;25.83;;
24153;SDS011;12312;53.362;-1.518;2022-12-18T11:05:31;82.25;;;28.15;;
24153;SDS011;12312;53.362;-1.518;2022-12-18T11:07:59;78.00;;;25.67;;
24153;SDS011;12312;53.362;-1.518;2022-12-18T11:10:28;77.78;;;27.50;;
24153;SDS011;12312;53.362;-1.518;2022-12-18T11:13:08;80.05;;;27.65;;
24153;SDS011;12312;53.362;-1.518;2022-12-18T11:15:41;76.60;;;26.73;;
24153;SDS011;12312;53.362;-1.518;2022-12-18T11:18:52;79.32;;;27.30;;
24153;SDS011;12312;53.362;-1.518;2022-12-18T11:23:34;77.38;;;26.52;;
24153;SDS011;12312;53.362;-1.518;2022-12-18T11:26:02;78.13;;;26.15;;
24153;SDS011;12312;53.362;-1.518;2022-12-18T11:33:50;83.30;;;28.27;;
24153;SDS011;12312;53.362;-1.518;2022-12-18T11:36:21;68.22;;;27.70;;
24153;SDS011;12312;53.362;-1.518;2022-12-18T11:38:47;76.45;;;28.65;;
24153;SDS011;12312;53.362;-1.518;2022-12-18T11:41:27;81.13;;;27.48;;
24153;SDS011;12312;53.362;-1.518;2022-12-18T11:44:29;72.72;;;24.65;;
24153;SDS011;12312;53.362;-1.518;2022-12-18T11:47:49;74.15;;;25.33;;
24153;SDS011;12312;53.362;-1.518;2022-12-18T11:53:04;73.38;;;27.42;;
24153;SDS011;12312;53.362;-1.518;2022-12-18T12:00:43;69.88;;;25.45;;
24153;SDS011;12312;53.362;-1.518;2022-12-18T12:03:23;72.65;;;24.83;;
24153;SDS011;12312;53.362;-1.518;2022-12-18T12:06:10;67.20;;;26.08;;
24153;SDS011;12312;53.362;-1.518;2022-12-18T12:33:08;72.65;;;25.63;;
24153;SDS011;12312;53.362;-1.518;2022-12-18T12:35:51;66.80;;;27.92;;
24153;SDS011;12312;53.362;-1.518;2022-12-18T12:38:34;73.15;;;26.83;;
24153;SDS011;12312;53.362;-1.518;2022-12-18T12:41:09;75.28;;;26.85;;
24153;SDS011;12312;53.362;-1.518;2022-12-18T12:43:58;72.20;;;26.10;;
24153;SDS011;12312;53.362;-1.518;2022-12-18T12:46:28;72.88;;;27.35;;
24153;SDS011;12312;53.362;-1.518;2022-12-18T12:48:59;72.43;;;26.60;;
24153;SDS011;12312;53.362;-1.518;2022-12-18T12:51:32;73.78;;;28.70;;
24153;SDS011;12312;53.362;-1.518;2022-12-18T12:54:02;69.68;;;28.00;;
24153;SDS011;12312;53.362;-1.518;2022-12-18T12:56:45;67.13;;;25.50;;
24153;SDS011;12312;53.362;-1.518;2022-12-18T13:02:05;76.13;;;28.67;;
24153;SDS011;12312;53.362;-1.518;2022-12-18T13:04:36;78.22;;;28.92;;
24153;SDS011;12312;53.362;-1.518;2022-12-18T13:15:38;73.13;;;28.30;;
24153;SDS011;12312;53.362;-1.518;2022-12-18T13:18:23;119.18;;;37.72;;
24153;SDS011;12312;53.362;-1.518;2022-12-18T13:26:27;76.05;;;27.13;;
24153;SDS011;12312;53.362;-1.518;2022-12-18T13:28:52;78.10;;;28.27;;
24153;SDS011;12312;53.362;-1.518;2022-12-18T13:34:12;75.57;;;27.20;;
24153;SDS011;12312;53.362;-1.518;2022-12-18T13:41:39;84.95;;;29.73;;
24153;SDS011;12312;53.362;-1.518;2022-12-18T13:44:13;74.00;;;25.98;;
24153;SDS011;12312;53.362;-1.518;2022-12-18T13:46:50;76.30;;;27.40;;
24153;SDS011;12312;53.362;-1.518;2022-12-18T13:51:51;75.30;;;29.83;;
24153;SDS011;12312;53.362;-1.518;2022-12-18T13:59:54;84.15;;;30.23;;
24153;SDS011;12312;53.362;-1.518;2022-12-18T14:02:22;80.38;;;30.55;;
24153;SDS011;12312;53.362;-1.518;2022-12-18T14:04:49;81.97;;;31.05;;
24153;SDS011;12312;53.362;-1.518;2022-12-18T14:07:20;80.10;;;30.10;;
24153;SDS011;12312;53.362;-1.518;2022-12-18T14:09:49;86.72;;;31.77;;
24153;SDS011;12312;53.362;-1.518;2022-12-18T14:12:24;93.50;;;31.38;;
24153;SDS011;12312;53.362;-1.518;2022-12-18T14:15:53;84.45;;;32.03;;
24153;SDS011;12312;53.362;-1.518;2022-12-18T14:20:56;76.53;;;29.70;;
24153;SDS011;12312;53.362;-1.518;2022-12-18T14:23:33;85.53;;;31.85;;
24153;SDS011;12312;53.362;-1.518;2022-12-18T14:25:59;64.35;;;24.02;;
24153;SDS011;12312;53.362;-1.518;2022-12-18T14:28:26;77.10;;;32.00;;
24153;SDS011;12312;53.362;-1.518;2022-12-18T14:30:53;83.32;;;32.65;;
24153;SDS011;12312;53.362;-1.518;2022-12-18T14:33:23;91.43;;;34.85;;
24153;SDS011;12312;53.362;-1.518;2022-12-18T14:35:54;96.35;;;35.70;;
24153;SDS011;12312;53.362;-1.518;2022-12-18T14:38:31;87.40;;;31.67;;
24153;SDS011;12312;53.362;-1.518;2022-12-18T14:40:58;84.90;;;29.92;;
24153;SDS011;12312;53.362;-1.518;2022-12-18T14:43:28;93.30;;;33.78;;
24153;SDS011;12312;53.362;-1.518;2022-12-18T14:45:59;89.45;;;31.92;;
24153;SDS011;12312;53.362;-1.518;2022-12-18T14:48:50;86.70;;;31.27;;
24153;SDS011;12312;53.362;-1.518;2022-12-18T14:51:20;89.28;;;34.92;;
24153;SDS011;12312;53.362;-1.518;2022-12-18T14:56:28;93.82;;;33.83;;
24153;SDS011;12312;53.362;-1.518;2022-12-18T15:01:44;96.88;;;33.30;;
24153;SDS011;12312;53.362;-1.518;2022-12-18T15:04:33;87.60;;;33.80;;
24153;SDS011;12312;53.362;-1.518;2022-12-18T15:07:17;92.82;;;33.95;;
24153;SDS011;12312;53.362;-1.518;2022-12-18T15:10:09;94.95;;;31.90;;
24153;SDS011;12312;53.362;-1.518;2022-12-18T15:12:47;80.57;;;29.35;;
24153;SDS011;12312;53.362;-1.518;2022-12-18T15:18:02;87.70;;;30.95;;
24153;SDS011;12312;53.362;-1.518;2022-12-18T15:20:28;76.90;;;31.08;;
24153;SDS011;12312;53.362;-1.518;2022-12-18T15:22:58;85.03;;;31.02;;
24153;SDS011;12312;53.362;-1.518;2022-12-18T15:25:29;75.95;;;29.55;;
24153;SDS011;12312;53.362;-1.518;2022-12-18T15:27:59;72.13;;;28.05;;
24153;SDS011;12312;53.362;-1.518;2022-12-18T15:30:25;71.65;;;26.25;;
24153;SDS011;12312;53.362;-1.518;2022-12-18T15:32:51;78.07;;;29.65;;
24153;SDS011;12312;53.362;-1.518;2022-12-18T15:35:38;81.78;;;29.08;;
24153;SDS011;12312;53.362;-1.518;2022-12-18T15:38:04;74.57;;;28.42;;
24153;SDS011;12312;53.362;-1.518;2022-12-18T15:40:30;75.05;;;28.13;;
24153;SDS011;12312;53.362;-1.518;2022-12-18T15:42:55;74.35;;;29.45;;
24153;SDS011;12312;53.362;-1.518;2022-12-18T15:45:40;82.85;;;30.15;;
24153;SDS011;12312;53.362;-1.518;2022-12-18T15:48:21;79.38;;;31.77;;
24153;SDS011;12312;53.362;-1.518;2022-12-18T15:50:48;82.47;;;32.75;;
24153;SDS011;12312;53.362;-1.518;2022-12-18T15:53:17;76.45;;;29.17;;
24153;SDS011;12312;53.362;-1.518;2022-12-18T15:55:43;74.63;;;29.70;;
24153;SDS011;12312;53.362;-1.518;2022-12-18T15:58:28;81.88;;;30.42;;
24153;SDS011;12312;53.362;-1.518;2022-12-18T16:00:54;79.70;;;31.27;;
24153;SDS011;12312;53.362;-1.518;2022-12-18T16:03:22;81.65;;;31.02;;
24153;SDS011;12312;53.362;-1.518;2022-12-18T16:05:48;95.03;;;33.35;;
24153;SDS011;12312;53.362;-1.518;2022-12-18T16:08:14;66.30;;;27.98;;
24153;SDS011;12312;53.362;-1.518;2022-12-18T16:10:39;81.35;;;29.88;;
24153;SDS011;12312;53.362;-1.518;2022-12-18T16:13:05;88.70;;;32.20;;
24153;SDS011;12312;53.362;-1.518;2022-12-18T16:15:34;78.55;;;30.42;;
24153;SDS011;12312;53.362;-1.518;2022-12-18T16:18:00;84.32;;;31.65;;
24153;SDS011;12312;53.362;-1.518;2022-12-18T16:20:26;90.10;;;33.38;;
24153;SDS011;12312;53.362;-1.518;2022-12-18T16:22:52;76.22;;;30.15;;
24153;SDS011;12312;53.362;-1.518;2022-12-18T16:25:19;72.70;;;29.83;;
24153;SDS011;12312;53.362;-1.518;2022-12-18T16:27:47;74.88;;;30.55;;
24153;SDS011;12312;53.362;-1.518;2022-12-18T16:30:18;77.00;;;29.67;;
24153;SDS011;12312;53.362;-1.518;2022-12-18T16:32:46;75.85;;;30.52;;
24153;SDS011;12312;53.362;-1.518;2022-12-18T16:35:14;78.93;;;29.75;;